Red Cliffs, Australia
Current Conditions -  °F | °C
As of 10:00 AM on Wednesday 26 Nov 2014 (Local Time) from YMIA Reporting Station
Clear Clear  
Wind Chill: 66°   Ceiling: Unl
Heat Index: 66°   Visibility: 6mi
Dew Point: 41°   Wind: 10mph
Humidity: 40%   Direction: 180°S
Pressure: 30.18"   Gusts: NA
Location:  34.31°S, 142.19°E
Report Text: YMIA 252300Z 18009KT CAVOK 19/05 Q1022
Loading
Personal Weather Stations






























Interactive Weather Map New forecast layout! Learn more

10-Day Weather Forecast

Advertisements
Track Severe Weather on mobile